createdAt,value
2019-05-09T00:00:46.025Z,10.38
2019-05-09T00:05:47.878Z,10.03
2019-05-09T00:10:53.484Z,11.40
2019-05-09T00:15:59.799Z,13.22
2019-05-09T00:21:04.390Z,10.10
2019-05-09T00:26:10.271Z,10.58
2019-05-09T00:31:13.736Z,11.73
2019-05-09T00:36:15.928Z,8.55
2019-05-09T00:41:17.295Z,10.25
2019-05-09T00:46:25.416Z,13.43
2019-05-09T00:51:29.227Z,8.85
2019-05-09T00:56:33.937Z,7.85
2019-05-09T01:01:38.572Z,8.93
2019-05-09T01:06:40.000Z,6.30
2019-05-09T01:11:41.295Z,8.13
2019-05-09T01:16:46.731Z,8.68
2019-05-09T01:21:49.767Z,9.73
2019-05-09T01:26:54.206Z,6.58
2019-05-09T01:31:57.483Z,9.35
2019-05-09T01:37:06.760Z,9.85
2019-05-09T01:42:08.663Z,11.08
2019-05-09T01:47:09.965Z,7.40
2019-05-09T01:52:13.737Z,5.50
2019-05-09T01:57:15.555Z,9.75
2019-05-09T02:02:18.345Z,8.60
2019-05-09T02:07:23.757Z,8.60
2019-05-09T02:12:25.713Z,9.03
2019-05-09T02:17:57.853Z,7.45
2019-05-09T02:22:54.379Z,8.13
2019-05-09T02:27:57.895Z,10.03
2019-05-09T02:33:01.032Z,7.20
2019-05-09T02:38:02.531Z,6.08
2019-05-09T02:43:05.834Z,7.78
2019-05-09T02:48:09.453Z,7.30
2019-05-09T02:53:12.555Z,9.40
2019-05-09T02:58:20.433Z,6.92
2019-05-09T03:03:31.606Z,7.95
2019-05-09T03:08:34.662Z,8.68
2019-05-09T03:13:39.333Z,5.85
2019-05-09T03:18:39.738Z,8.08
2019-05-09T03:23:41.191Z,10.25
2019-05-09T03:29:08.585Z,10.63
2019-05-09T03:34:11.865Z,9.70
2019-05-09T03:39:18.614Z,6.37
2019-05-09T03:44:20.712Z,6.55
2019-05-09T03:49:24.305Z,7.15
2019-05-09T03:54:28.140Z,5.22
2019-05-09T03:59:31.448Z,11.50
2019-05-09T04:04:34.612Z,6.33
2019-05-09T04:09:37.505Z,5.85
2019-05-09T04:14:40.897Z,9.68
2019-05-09T04:19:44.360Z,13.85
2019-05-09T04:24:47.421Z,5.85
2019-05-09T04:29:50.899Z,9.13
2019-05-09T04:34:52.943Z,9.20
2019-05-09T04:40:01.584Z,8.60
2019-05-09T04:45:03.593Z,8.23
2019-05-09T04:50:07.614Z,5.87
2019-05-09T04:55:12.093Z,9.33
2019-05-09T05:00:18.309Z,8.70
2019-05-09T05:05:21.330Z,8.70
2019-05-09T05:10:22.588Z,7.90
2019-05-09T05:15:24.187Z,9.88
2019-05-09T05:20:30.654Z,7.17
2019-05-09T05:25:31.976Z,6.55
2019-05-09T05:30:33.308Z,5.50
2019-05-09T05:35:44.909Z,9.55
2019-05-09T05:40:47.664Z,4.15
2019-05-09T05:46:01.897Z,12.45
2019-05-09T05:51:05.303Z,9.85
2019-05-09T05:56:09.513Z,7.58
2019-05-09T06:01:12.449Z,10.03
2019-05-09T06:06:13.835Z,6.87
2019-05-09T06:11:17.559Z,6.80
2019-05-09T06:16:22.160Z,5.83
2019-05-09T06:21:22.489Z,6.05
2019-05-09T06:26:24.165Z,9.28
2019-05-09T06:31:28.299Z,9.88
2019-05-09T06:36:29.017Z,8.73
2019-05-09T06:41:30.297Z,4.00
2019-05-09T06:46:34.558Z,6.15
2019-05-09T06:51:38.781Z,10.20
2019-05-09T06:56:40.643Z,7.65
2019-05-09T07:01:48.195Z,8.83
2019-05-09T07:07:07.790Z,10.78
2019-05-09T07:12:14.863Z,6.47
2019-05-09T07:17:19.889Z,8.48
2019-05-09T07:22:24.554Z,5.20
2019-05-09T07:27:28.523Z,7.15
2019-05-09T07:32:48.834Z,8.88
2019-05-09T07:37:50.259Z,9.78
2019-05-09T07:42:53.408Z,9.45
2019-05-09T07:47:58.600Z,11.03
2019-05-09T07:53:00.323Z,8.95
2019-05-09T07:58:02.765Z,11.45
2019-05-09T08:03:22.768Z,6.72
2019-05-09T08:08:24.335Z,9.70
2019-05-09T08:13:29.017Z,7.87
2019-05-09T08:18:30.146Z,13.43
2019-05-09T08:23:32.897Z,10.35
2019-05-09T08:28:39.006Z,7.83
2019-05-09T08:33:40.414Z,7.62
2019-05-09T08:38:42.561Z,7.75
2019-05-09T08:43:44.020Z,7.72
2019-05-09T08:48:48.290Z,5.90
2019-05-09T08:53:49.139Z,8.55
2019-05-09T08:58:53.767Z,7.50
2019-05-09T09:03:57.452Z,10.72
2019-05-09T09:08:58.437Z,10.25
2019-05-09T09:14:03.624Z,7.37
2019-05-09T09:19:05.090Z,8.48
2019-05-09T09:24:09.737Z,9.08
2019-05-09T09:29:12.932Z,7.87
2019-05-09T09:34:18.142Z,6.92
2019-05-09T09:39:20.132Z,10.72
2019-05-09T09:44:22.495Z,7.20
2019-05-09T09:49:25.445Z,6.15
2019-05-09T09:54:28.145Z,7.08
2019-05-09T09:59:40.846Z,7.30
2019-05-09T10:04:43.041Z,6.75
2019-05-09T10:09:48.090Z,8.13
2019-05-09T10:15:03.901Z,9.50
2019-05-09T10:20:20.417Z,7.85
2019-05-09T10:25:21.856Z,7.28
2019-05-09T10:30:33.377Z,7.95
2019-05-09T10:35:34.602Z,7.08
2019-05-09T10:40:39.432Z,4.92
2019-05-09T10:45:59.777Z,4.20
2019-05-09T10:51:04.188Z,9.50
2019-05-09T10:56:07.863Z,6.70
2019-05-09T11:01:12.580Z,7.97
2019-05-09T11:06:14.099Z,8.18
2019-05-09T11:11:20.897Z,7.53
2019-05-09T11:16:38.049Z,7.90
2019-05-09T11:21:28.614Z,6.12
2019-05-09T11:26:32.428Z,6.42
2019-05-09T11:31:33.927Z,5.72
2019-05-09T11:36:37.676Z,4.47
2019-05-09T11:41:40.338Z,5.95
2019-05-09T11:46:41.589Z,6.80
2019-05-09T11:51:42.912Z,5.25
2019-05-09T11:56:44.218Z,5.80
2019-05-09T12:01:48.039Z,6.33
2019-05-09T12:06:49.482Z,8.25
2019-05-09T12:11:51.203Z,4.30
2019-05-09T12:16:52.496Z,5.08
2019-05-09T12:21:58.187Z,6.35
2019-05-09T12:27:01.459Z,4.95
2019-05-09T12:32:02.342Z,6.30
2019-05-09T12:37:03.674Z,7.28
2019-05-09T12:42:08.656Z,8.93
2019-05-09T12:47:13.388Z,7.55
2019-05-09T12:52:14.818Z,10.10
2019-05-09T12:57:18.935Z,9.48
2019-05-09T13:02:19.664Z,8.43
2019-05-09T13:07:23.045Z,6.50
2019-05-09T13:12:29.133Z,9.05
2019-05-09T13:17:33.495Z,9.50
2019-05-09T13:22:35.168Z,10.50
2019-05-09T13:27:38.773Z,7.00
2019-05-09T13:32:40.290Z,10.90
2019-05-09T13:37:42.944Z,10.60
2019-05-09T13:42:44.232Z,12.85
2019-05-09T13:47:48.450Z,13.35
2019-05-09T13:52:53.232Z,14.98
2019-05-09T13:57:59.453Z,14.13
2019-05-09T14:03:01.057Z,13.32
2019-05-09T14:08:11.005Z,12.15
2019-05-09T14:13:18.990Z,10.32
2019-05-09T14:18:22.386Z,14.95
2019-05-09T14:23:34.929Z,13.00
2019-05-09T14:28:30.026Z,9.55
2019-05-09T14:33:31.903Z,9.10
2019-05-09T14:38:34.914Z,9.08
2019-05-09T14:43:39.664Z,8.90
2019-05-09T14:48:41.142Z,13.30
2019-05-09T14:53:45.456Z,13.22
2019-05-09T14:58:53.495Z,11.28
2019-05-09T15:04:00.967Z,14.18
2019-05-09T15:09:08.054Z,14.10
2019-05-09T15:14:10.745Z,12.23
2019-05-09T15:19:13.023Z,15.13
2019-05-09T15:24:14.433Z,14.73
2019-05-09T15:29:15.686Z,13.60
2019-05-09T15:34:18.674Z,15.72
2019-05-09T15:39:20.465Z,14.83
2019-05-09T15:44:21.764Z,12.50
2019-05-09T15:49:23.354Z,11.57
2019-05-09T15:54:24.826Z,10.98
2019-05-09T15:59:28.183Z,16.65
2019-05-09T16:04:29.671Z,13.40
2019-05-09T16:09:32.938Z,16.60
2019-05-09T16:14:34.269Z,16.00
2019-05-09T16:19:37.767Z,17.67
2019-05-09T16:24:39.104Z,19.65
2019-05-09T16:29:42.300Z,23.32
2019-05-09T16:34:43.608Z,24.82
2019-05-09T16:39:47.629Z,20.92
2019-05-09T16:44:50.221Z,18.10
2019-05-09T16:49:52.294Z,15.93
2019-05-09T16:54:55.548Z,14.85
2019-05-09T16:59:57.016Z,12.03
2019-05-09T17:05:01.026Z,10.58
2019-05-09T17:10:08.346Z,13.05
2019-05-09T17:15:17.536Z,10.38
2019-05-09T17:20:27.798Z,15.90
2019-05-09T17:25:33.597Z,12.33
2019-05-09T17:30:38.381Z,11.35
2019-05-09T17:35:40.161Z,8.53
2019-05-09T17:40:41.432Z,13.88
2019-05-09T17:45:44.162Z,10.30
2019-05-09T17:50:45.825Z,12.80
2019-05-09T17:55:47.776Z,7.83
2019-05-09T18:00:51.592Z,6.55
2019-05-09T18:05:52.919Z,10.43
2019-05-09T18:10:54.306Z,8.23
2019-05-09T18:15:57.602Z,6.55
2019-05-09T18:20:59.223Z,8.15
2019-05-09T18:26:01.644Z,9.15
2019-05-09T18:31:02.965Z,11.88
2019-05-09T18:36:04.921Z,10.72
2019-05-09T18:41:10.040Z,8.33
2019-05-09T18:46:13.815Z,7.22
2019-05-09T18:51:15.590Z,6.95
2019-05-09T18:56:16.934Z,10.82
2019-05-09T19:01:20.186Z,7.83
2019-05-09T19:06:21.518Z,8.40
2019-05-09T19:11:22.754Z,13.85
2019-05-09T19:16:34.809Z,11.18
2019-05-09T19:21:38.188Z,11.00
2019-05-09T19:26:41.695Z,9.88
2019-05-09T19:31:44.595Z,8.88
2019-05-09T19:36:46.361Z,9.83
2019-05-09T19:41:47.626Z,9.33
2019-05-09T19:46:49.130Z,11.88
2019-05-09T19:51:50.425Z,12.63
2019-05-09T19:56:55.497Z,15.13
2019-05-09T20:01:57.155Z,15.13
2019-05-09T20:07:02.696Z,13.48
2019-05-09T20:12:21.578Z,16.52
2019-05-09T20:17:23.197Z,14.65
2019-05-09T20:22:24.575Z,17.90
2019-05-09T20:27:26.100Z,24.40
2019-05-09T20:32:27.448Z,22.48
2019-05-09T20:37:28.724Z,26.45
2019-05-09T20:42:31.163Z,24.07
2019-05-09T20:47:32.688Z,26.00
2019-05-09T20:52:34.091Z,24.82
2019-05-09T20:57:35.397Z,21.70
2019-05-09T21:02:38.720Z,21.75
2019-05-09T21:07:40.111Z,18.87
2019-05-09T21:12:41.467Z,17.98
2019-05-09T21:17:43.839Z,21.25
2019-05-09T21:22:45.199Z,19.05
2019-05-09T21:27:46.682Z,17.62
2019-05-09T21:32:48.050Z,17.60
2019-05-09T21:37:49.404Z,17.82
2019-05-09T21:42:50.768Z,22.62
2019-05-09T21:47:57.094Z,17.40
2019-05-09T21:52:58.397Z,16.02
2019-05-09T21:57:59.764Z,14.68
2019-05-09T22:03:01.401Z,14.35
2019-05-09T22:08:06.248Z,17.65
2019-05-09T22:13:10.579Z,17.37
2019-05-09T22:18:13.112Z,16.65
2019-05-09T22:23:14.574Z,17.62
2019-05-09T22:28:19.334Z,17.10
2019-05-09T22:33:22.162Z,15.10
2019-05-09T22:38:29.827Z,17.35
2019-05-09T22:43:31.111Z,18.62
2019-05-09T22:48:32.895Z,13.72
2019-05-09T22:53:34.427Z,17.85
2019-05-09T22:58:37.694Z,19.02
2019-05-09T23:03:38.998Z,17.25
2019-05-09T23:08:41.923Z,17.75
2019-05-09T23:13:52.202Z,21.42
2019-05-09T23:18:56.802Z,19.82
2019-05-09T23:24:01.073Z,21.70
2019-05-09T23:29:21.048Z,20.30
2019-05-09T23:34:24.299Z,26.45
2019-05-09T23:39:36.645Z,28.60
2019-05-09T23:44:38.305Z,27.02
2019-05-09T23:49:41.194Z,30.00
2019-05-09T23:55:01.034Z,30.25
